Weather History for Silver Bay, MN

Change the Weather History Date:

Tuesday, October 2, 2012

  Actual Average Record
Temperature  
Mean Temperature 42 °F -  
Max Temperature 59 °F 54 °F 78 °F (2006)
Min Temperature 26 °F 33 °F 17 °F (2003)
Degree Days  
Heating Degree Days 22    
Moisture  
Dew Point 35 °F    
Average Humidity 73    
Maximum Humidity 93    
Minimum Humidity 48    
Precipitation  
Precipitation 0.00 in - - ()
Sea Level Pressure  
Sea Level Pressure 29.91 in    
Wind  
Wind Speed 2 mph (East)    
Max Wind Speed 12 mph    
Max Gust Speed 16 mph    
Visibility 10 miles    
Events      
Averages and records for this station are not official NWS values.
T = Trace of Precipitation, MM = Missing Value Source: NWS Daily Summary

Daily Weather History Graph

Daily Weather History Graph

Search for Another Location

Airport:

Trip Planner

Search our weather history database for the weather conditions in past years. The results will help you decide how hot, cold, wet, or windy it might be!

Date:

Astronomy

Oct. 02, 2012 Rise Set
Actual Time 7:06 AM CDT 6:42 PM CDT
Civil Twilight 6:36 AM CDT 7:12 PM CDT
Nautical Twilight 6:00 AM CDT 7:48 PM CDT
Astronomical Twilight 5:24 AM CDT 8:23 PM CDT
Moon 7:40 PM CDT (10/2) 9:47 AM CDT (10/2)
Length of Visible Light 12h 36m
Length of Day
11h 35m
Waning Gibbous, 94% of the Moon is Illuminated
Oct 2
Waning Gibbous
Oct 8
Last Quarter
Oct 15
New
Oct 21
First Quarter
Oct 29
Full

Hourly Weather History & Observations

Time (CDT) Temp. Windchill Dew Point Humidity Pressure Visibility Wind Dir Wind Speed Gust Speed Precip Events Conditions
12:33 AM 33.8 °F - 28.4 °F 81% 29.94 in 10.0 mi Calm Calm - N/A   Clear
12:53 AM 33.8 °F - 30.2 °F 87% 29.94 in 10.0 mi Calm Calm - N/A   Clear
1:13 AM 32.0 °F - 28.4 °F 87% 29.94 in 10.0 mi Calm Calm - N/A   Clear
1:33 AM 32.0 °F - 28.4 °F 87% 29.94 in 10.0 mi Calm Calm - N/A   Clear
1:53 AM 30.2 °F - 28.4 °F 93% 29.94 in 10.0 mi Calm Calm - N/A   Clear
2:13 AM 30.2 °F - 26.6 °F 86% 29.94 in 10.0 mi Calm Calm - N/A   Clear
2:33 AM 28.4 °F - 24.8 °F 86% 29.94 in 10.0 mi Calm Calm - N/A   Clear
2:53 AM 28.4 °F - 26.6 °F 93% 29.93 in 10.0 mi Calm Calm - N/A   Clear
3:13 AM 32.0 °F - 28.4 °F 87% 29.92 in 10.0 mi Calm Calm - N/A   Clear
3:33 AM 30.2 °F - 24.8 °F 80% 29.93 in 10.0 mi Calm Calm - N/A   Clear
3:53 AM 28.4 °F - 26.6 °F 93% 29.94 in 10.0 mi Calm Calm - N/A   Clear
4:13 AM 28.4 °F - 24.8 °F 86% 29.94 in 10.0 mi Calm Calm - N/A   Clear
4:33 AM 28.4 °F - 24.8 °F 86% 29.94 in 10.0 mi Calm Calm - N/A   Clear
4:53 AM 28.4 °F - 24.8 °F 86% 29.94 in 10.0 mi Calm Calm - N/A   Clear
5:13 AM 26.6 °F - 24.8 °F 93% 29.95 in 10.0 mi Calm Calm - N/A   Clear
5:33 AM - - - N/A% 29.95 in 10.0 mi Calm Calm - N/A   Unknown
6:13 AM 26.6 °F - 24.8 °F 93% 29.96 in 10.0 mi Calm Calm - N/A   Clear
6:33 AM 26.6 °F - 23.0 °F 86% 29.95 in 10.0 mi Calm Calm - N/A   Clear
6:53 AM 26.6 °F - 24.8 °F 93% 29.96 in 10.0 mi Calm Calm - N/A   Clear
7:13 AM 26.6 °F - 23.0 °F 86% 29.96 in 10.0 mi North - - N/A   Clear
7:33 AM 26.6 °F - 24.8 °F 93% 29.96 in - Calm Calm - N/A   Clear
8:14 AM 33.8 °F - 30.2 °F 87% 29.96 in 10.0 mi Calm Calm - N/A   Clear
8:34 AM 37.4 °F - 33.8 °F 87% 29.97 in 10.0 mi Calm Calm - N/A   Clear
8:54 AM 42.8 °F - 35.6 °F 76% 29.96 in 10.0 mi Calm Calm - N/A   Clear
9:13 AM 48.2 °F - 39.2 °F 71% 29.96 in 10.0 mi Calm Calm - N/A   Clear
9:33 AM 53.6 °F - 42.8 °F 67% 29.96 in 10.0 mi Calm Calm - N/A   Clear
9:53 AM 55.4 °F - 42.8 °F 63% 29.96 in 10.0 mi SE 3.5 mph - N/A   Clear
10:13 AM 55.4 °F - 41.0 °F 58% 29.96 in 10.0 mi South 4.6 mph - N/A   Clear
10:33 AM 55.4 °F - 41.0 °F 58% 29.96 in 10.0 mi SE 4.6 mph - N/A   Clear
10:53 AM 57.2 °F - 41.0 °F 55% 29.96 in 10.0 mi ESE 3.5 mph - N/A   Clear
11:13 AM 59.0 °F - 39.2 °F 48% 29.95 in 10.0 mi SSE 8.1 mph - N/A   Clear
11:33 AM 57.2 °F - 39.2 °F 51% 29.95 in 10.0 mi SSE 5.8 mph - N/A   Clear
11:53 AM 59.0 °F - 39.2 °F 48% 29.95 in 10.0 mi SE 8.1 mph - N/A   Clear
12:13 PM 59.0 °F - 39.2 °F 48% 29.94 in 10.0 mi SE 6.9 mph - N/A   Clear
12:33 PM 59.0 °F - 39.2 °F 48% 29.93 in 10.0 mi SE 5.8 mph - N/A   Clear
12:53 PM 59.0 °F - 39.2 °F 48% 29.92 in 10.0 mi SE 8.1 mph - N/A   Clear
1:13 PM 59.0 °F - 41.0 °F 51% 29.91 in 10.0 mi SSE 8.1 mph - N/A   Clear
1:33 PM 59.0 °F - 41.0 °F 51% 29.90 in 10.0 mi East 8.1 mph - N/A   Clear
1:53 PM 57.2 °F - 42.8 °F 59% 29.90 in 10.0 mi ESE 8.1 mph - N/A   Clear
2:13 PM 57.2 °F - 42.8 °F 59% 29.90 in 10.0 mi East 11.5 mph - N/A   Clear
2:33 PM 57.2 °F - 42.8 °F 59% 29.89 in 10.0 mi East 9.2 mph - N/A   Clear
2:53 PM 57.2 °F - 41.0 °F 55% 29.88 in 10.0 mi East 9.2 mph 16.1 mph N/A   Clear
3:13 PM 57.2 °F - 41.0 °F 55% 29.88 in 10.0 mi East 8.1 mph - N/A   Clear
3:33 PM 57.2 °F - 39.2 °F 51% 29.88 in 10.0 mi East 9.2 mph - N/A   Clear
3:53 PM 57.2 °F - 41.0 °F 55% 29.87 in 10.0 mi ENE 9.2 mph - N/A   Clear
4:13 PM 57.2 °F - 39.2 °F 51% 29.86 in 10.0 mi East 6.9 mph - N/A   Clear
4:33 PM 55.4 °F - 39.2 °F 54% 29.86 in 10.0 mi East 8.1 mph - N/A   Clear
4:53 PM 55.4 °F - 39.2 °F 54% 29.86 in 10.0 mi East 5.8 mph - N/A   Clear
5:13 PM 55.4 °F - 37.4 °F 51% 29.86 in 10.0 mi East 6.9 mph - N/A   Clear
5:33 PM 53.6 °F - 37.4 °F 54% 29.85 in 10.0 mi East 6.9 mph - N/A   Clear
5:53 PM 51.8 °F - 37.4 °F 58% 29.85 in 10.0 mi ENE 6.9 mph - N/A   Clear
6:13 PM 50.0 °F - 37.4 °F 62% 29.86 in 10.0 mi ENE 6.9 mph - N/A   Clear
6:33 PM 48.2 °F - 37.4 °F 66% 29.85 in 10.0 mi ENE 6.9 mph - N/A   Clear
6:53 PM 46.4 °F 44.3 °F 39.2 °F 76% 29.85 in 10.0 mi ENE 4.6 mph - N/A   Clear
7:13 PM 46.4 °F 43.5 °F 39.2 °F 76% 29.85 in 10.0 mi ENE 5.8 mph - N/A   Clear
7:33 PM 46.4 °F 44.3 °F 39.2 °F 76% 29.86 in 10.0 mi NE 4.6 mph - N/A   Clear
7:53 PM 44.6 °F 43.1 °F 39.2 °F 81% 29.85 in 10.0 mi NE 3.5 mph - N/A   Clear
8:13 PM 44.6 °F 43.1 °F 39.2 °F 81% 29.85 in 10.0 mi NE 3.5 mph - N/A   Clear
8:33 PM 44.6 °F 43.1 °F 39.2 °F 81% 29.85 in 10.0 mi NNE 3.5 mph - N/A   Clear
9:13 PM 42.8 °F - 37.4 °F 81% 29.86 in 10.0 mi Calm Calm - N/A   Clear
9:33 PM 42.8 °F - 37.4 °F 81% 29.86 in 10.0 mi Calm Calm - N/A   Clear
9:53 PM 42.8 °F - 39.2 °F 87% 29.87 in 10.0 mi Calm Calm - N/A   Clear
10:13 PM 39.2 °F 37.0 °F 35.6 °F 87% 29.87 in 10.0 mi North 3.5 mph - N/A   Clear
10:33 PM 41.0 °F - 39.2 °F 93% 29.87 in 10.0 mi Calm Calm - N/A   Clear
10:53 PM 39.2 °F - 33.8 °F 81% 29.87 in 10.0 mi Calm Calm - N/A   Clear
11:13 PM 37.4 °F - 33.8 °F 87% 29.87 in 10.0 mi Calm Calm - N/A   Clear
11:33 PM 35.6 °F - 33.8 °F 93% 29.87 in 10.0 mi Calm Calm - N/A   Clear
11:53 PM 35.6 °F - 32.0 °F 87% 29.87 in 10.0 mi Calm Calm - N/A   Clear